Time;durP1;ratioP1;P1;durP2;ratioP2;P2;SDS_P1;SDS_P2;PMS_P1;PMS_P2;Temp;Humidity;BMP_temperature;BMP_pressure;BME280_temperature;BME280_humidity;BME280_pressure;Samples;Min_cycle;Max_cycle;Signal;HPM_P1;HPM_P2
2022/08/05 00:00:44;;;;;;;;;;;;;;;;;;5008497;28;43614;-77
2022/08/05 00:03:15;;;;;;;;;;;;;;;;;;5007778;28;47033;-77
2022/08/05 00:05:42;;;;;;;;;;;;;;;;;;4991012;28;45881;-77
2022/08/05 00:08:28;;;;;;;;;;;;;;;;;;4994722;28;20419;-77
2022/08/05 00:11:00;;;;;;;;;;;;;;;;;;4987773;28;45736;-77
2022/08/05 00:13:26;;;;;;;;;;;;;;;;;;5007603;28;48092;-77
2022/08/05 00:16:03;;;;;;;;;;;;;;;;;;5006012;28;44525;-77
2022/08/05 00:18:30;;;;;;;;;;;;;;;;;;5008411;28;46331;-77
2022/08/05 00:20:56;;;;;;;;;;;;;;;;;;4989718;28;48007;-77
2022/08/05 00:23:22;;;;;;;;;;;;;;;;;;5008153;28;47446;-77
2022/08/05 00:26:08;;;;;;;;;;;;;;;;;;5008296;28;19934;-77
2022/08/05 00:28:35;;;;;;;;;;;;;;;;;;5019045;28;42812;-77
2022/08/05 00:31:01;;;;;;;;;;;;;;;;;;4988078;28;44263;-77
2022/08/05 00:33:29;;;;;;;;;;;;;;;;;;4988989;28;47082;-78
2022/08/05 00:36:17;;;;;;;;;;;;;;;;;;5009088;28;19951;-78
2022/08/05 00:39:03;;;;;;;;;;;;;;;;;;5009322;28;20498;-78
2022/08/05 00:41:29;;;;;;;;;;;;;;;;;;4983215;28;47461;-77
2022/08/05 00:44:12;;;;;;;;;;;;;;;;;;4993538;28;43299;-78
2022/08/05 00:46:38;;;;;;;;;;;;;;;;;;4990036;28;48533;-78
2022/08/05 00:49:08;;;;;;;;;;;;;;;;;;4991249;28;44994;-78
2022/08/05 00:51:35;;;;;;;;;;;;;;;;;;5005759;28;46361;-78
2022/08/05 00:54:16;;;;;;;;;;;;;;;;;;5007553;28;47040;-78
2022/08/05 00:56:42;;;;;;;;;;;;;;;;;;5007740;28;44701;-78
2022/08/05 00:59:16;;;;;;;;;;;;;;;;;;4980563;28;46356;-78
2022/08/05 01:01:42;;;;;;;;;;;;;;;;;;5006971;28;46969;-78
2022/08/05 01:04:14;;;;;;;;;;;;;;;;;;5008097;28;44723;-77
2022/08/05 01:06:41;;;;;;;;;;;;;;;;;;4990497;28;47662;-78
2022/08/05 01:09:08;;;;;;;;;;;;;;;;;;4994547;28;44199;-78
2022/08/05 01:11:35;;;;;;;;;;;;;;;;;;4985001;28;44297;-77
2022/08/05 01:14:02;;;;;;;;;;;;;;;;;;5005405;28;46845;-78
2022/08/05 01:16:29;;;;;;;;;;;;;;;;;;4989818;28;44845;-77
2022/08/05 01:18:55;;;;;;;;;;;;;;;;;;4987245;28;43448;-78
2022/08/05 01:21:24;;;;;;;;;;;;;;;;;;4991139;28;48618;-77
2022/08/05 01:23:50;;;;;;;;;;;;;;;;;;4990356;28;43001;-77
2022/08/05 01:26:18;;;;;;;;;;;;;;;;;;5007906;28;47617;-77
2022/08/05 01:28:45;;;;;;;;;;;;;;;;;;5005622;28;48220;-77
2022/08/05 01:31:11;;;;;;;;;;;;;;;;;;4981517;28;44506;-78
2022/08/05 01:33:37;;;;;;;;;;;;;;;;;;4990952;28;46522;-77
2022/08/05 01:36:03;;;;;;;;;;;;;;;;;;4992685;28;45799;-77
2022/08/05 01:38:30;;;;;;;;;;;;;;;;;;5002407;28;45668;-78
2022/08/05 01:40:56;;;;;;;;;;;;;;;;;;4970179;28;47096;-77
2022/08/05 01:43:22;;;;;;;;;;;;;;;;;;4980100;28;46087;-77
2022/08/05 01:45:49;;;;;;;;;;;;;;;;;;4989845;28;46014;-77
2022/08/05 01:48:21;;;;;;;;;;;;;;;;;;4990131;28;47723;-77
2022/08/05 01:50:47;;;;;;;;;;;;;;;;;;4989346;28;47402;-77
2022/08/05 01:53:16;;;;;;;;;;;;;;;;;;5007211;28;48269;-77
2022/08/05 01:55:42;;;;;;;;;;;;;;;;;;4989549;28;45079;-77
2022/08/05 01:58:08;;;;;;;;;;;;;;;;;;5005220;28;47889;-77
2022/08/05 02:00:41;;;;;;;;;;;;;;;;;;4990061;28;45691;-77
2022/08/05 02:03:07;;;;;;;;;;;;;;;;;;4989714;28;43162;-77
2022/08/05 02:05:49;;;;;;;;;;;;;;;;;;5006497;28;46746;-77
2022/08/05 02:08:15;;;;;;;;;;;;;;;;;;5006180;28;48076;-78
2022/08/05 02:10:45;;;;;;;;;;;;;;;;;;4988755;28;45713;-77
2022/08/05 02:13:12;;;;;;;;;;;;;;;;;;4997721;28;46657;-78
2022/08/05 02:15:41;;;;;;;;;;;;;;;;;;4998296;28;45858;-77
2022/08/05 02:18:07;;;;;;;;;;;;;;;;;;5002586;28;44984;-77
2022/08/05 02:20:54;;;;;;;;;;;;;;;;;;4988607;28;19941;-77
2022/08/05 02:23:21;;;;;;;;;;;;;;;;;;4987191;28;43656;-77
2022/08/05 02:25:47;;;;;;;;;;;;;;;;;;4990524;28;46390;-77
2022/08/05 02:28:15;;;;;;;;;;;;;;;;;;4998614;28;47128;-77
2022/08/05 02:30:41;;;;;;;;;;;;;;;;;;5004746;28;44624;-77
2022/08/05 02:33:19;;;;;;;;;;;;;;;;;;4991713;28;47566;-77
2022/08/05 02:35:49;;;;;;;;;;;;;;;;;;5009212;28;43709;-77
2022/08/05 02:38:24;;;;;;;;;;;;;;;;;;5008966;28;46841;-77
2022/08/05 02:40:50;;;;;;;;;;;;;;;;;;5008177;28;48162;-77
2022/08/05 02:43:16;;;;;;;;;;;;;;;;;;5007854;28;45611;-77
2022/08/05 02:45:43;;;;;;;;;;;;;;;;;;5009533;28;44816;-77
2022/08/05 02:48:18;;;;;;;;;;;;;;;;;;5017235;28;48361;-76
2022/08/05 02:50:46;;;;;;;;;;;;;;;;;;5010614;28;45973;-77
2022/08/05 02:53:12;;;;;;;;;;;;;;;;;;5010229;28;46360;-77
2022/08/05 02:55:41;;;;;;;;;;;;;;;;;;5009554;28;45176;-76
2022/08/05 02:58:20;;;;;;;;;;;;;;;;;;4993707;28;47962;-77
2022/08/05 03:00:46;;;;;;;;;;;;;;;;;;4991788;28;45981;-77
2022/08/05 03:03:13;;;;;;;;;;;;;;;;;;4992000;28;44827;-77
2022/08/05 03:05:39;;;;;;;;;;;;;;;;;;4990663;28;46742;-77
2022/08/05 03:08:25;;;;;;;;;;;;;;;;;;4995969;28;19941;-77
2022/08/05 03:10:52;;;;;;;;;;;;;;;;;;5009179;28;43127;-77
2022/08/05 03:13:38;;;;;;;;;;;;;;;;;;5011068;28;20431;-77
2022/08/05 03:16:17;;;;;;;;;;;;;;;;;;4991996;28;45559;-77
2022/08/05 03:18:43;;;;;;;;;;;;;;;;;;4992394;28;44716;-77
2022/08/05 03:21:09;;;;;;;;;;;;;;;;;;5010001;28;47031;-77
2022/08/05 03:23:36;;;;;;;;;;;;;;;;;;4991794;28;44575;-78
2022/08/05 03:26:02;;;;;;;;;;;;;;;;;;4990634;28;45924;-77
2022/08/05 03:28:48;;;;;;;;;;;;;;;;;;4994815;28;19934;-77
2022/08/05 03:31:14;;;;;;;;;;;;;;;;;;4991979;28;45833;-77
2022/08/05 03:33:50;;;;;;;;;;;;;;;;;;4994146;28;46523;-77
2022/08/05 03:36:18;;;;;;;;;;;;;;;;;;4991064;28;48214;-78
2022/08/05 03:38:55;;;;;;;;;;;;;;;;;;4993305;28;43375;-77
2022/08/05 03:41:21;;;;;;;;;;;;;;;;;;4991391;28;46804;-77
2022/08/05 03:43:48;;;;;;;;;;;;;;;;;;5008758;28;41898;-77
2022/08/05 03:46:35;;;;;;;;;;;;;;;;;;4990116;28;20328;-77
2022/08/05 03:49:01;;;;;;;;;;;;;;;;;;5008255;28;48126;-77
2022/08/05 03:51:27;;;;;;;;;;;;;;;;;;4991723;28;44548;-77
2022/08/05 03:54:13;;;;;;;;;;;;;;;;;;5009198;28;19937;-77
2022/08/05 03:56:59;;;;;;;;;;;;;;;;;;4975614;28;19934;-77
2022/08/05 03:59:26;;;;;;;;;;;;;;;;;;4981720;28;44608;-77
2022/08/05 04:01:54;;;;;;;;;;;;;;;;;;4994305;28;47960;-77
2022/08/05 04:04:24;;;;;;;;;;;;;;;;;;4992303;28;44993;-77
2022/08/05 04:06:51;;;;;;;;;;;;;;;;;;4990625;28;48272;-77
2022/08/05 04:09:17;;;;;;;;;;;;;;;;;;4985406;28;46592;-77
2022/08/05 04:11:45;;;;;;;;;;;;;;;;;;5008268;28;46390;-78
2022/08/05 04:14:16;;;;;;;;;;;;;;;;;;4991039;28;44792;-77
2022/08/05 04:16:43;;;;;;;;;;;;;;;;;;4984694;28;47032;-78
2022/08/05 04:19:09;;;;;;;;;;;;;;;;;;4992042;28;44692;-81
2022/08/05 04:21:36;;;;;;;;;;;;;;;;;;4991042;28;47535;-77
2022/08/05 04:24:23;;;;;;;;;;;;;;;;;;5008827;28;19937;-77
2022/08/05 04:26:49;;;;;;;;;;;;;;;;;;5019979;28;45379;-77
2022/08/05 04:29:15;;;;;;;;;;;;;;;;;;4991356;28;48609;-78
2022/08/05 04:31:42;;;;;;;;;;;;;;;;;;5009573;28;43637;-77
2022/08/05 04:34:08;;;;;;;;;;;;;;;;;;4990591;28;44885;-78
2022/08/05 04:36:54;;;;;;;;;;;;;;;;;;4994107;28;19934;-77
2022/08/05 04:39:20;;;;;;;;;;;;;;;;;;4990777;28;44721;-78
2022/08/05 04:41:47;;;;;;;;;;;;;;;;;;5008907;28;46037;-77
2022/08/05 04:44:13;;;;;;;;;;;;;;;;;;4990388;28;47282;-77
2022/08/05 04:46:39;;;;;;;;;;;;;;;;;;4989211;28;43426;-77
2022/08/05 04:49:06;;;;;;;;;;;;;;;;;;4987844;28;44320;-77
2022/08/05 04:51:37;;;;;;;;;;;;;;;;;;4994309;28;44780;-77
2022/08/05 04:54:03;;;;;;;;;;;;;;;;;;5004515;28;47493;-77
2022/08/05 04:56:30;;;;;;;;;;;;;;;;;;4991011;28;47239;-77
2022/08/05 04:59:00;;;;;;;;;;;;;;;;;;4991218;28;45030;-77
2022/08/05 05:01:26;;;;;;;;;;;;;;;;;;5008154;28;44642;-77
2022/08/05 05:04:12;;;;;;;;;;;;;;;;;;5009194;28;19934;-77
2022/08/05 05:06:39;;;;;;;;;;;;;;;;;;4989443;28;44616;-77
2022/08/05 05:09:10;;;;;;;;;;;;;;;;;;4988440;28;46360;-77
2022/08/05 05:11:39;;;;;;;;;;;;;;;;;;4998761;28;44642;-77
2022/08/05 05:14:19;;;;;;;;;;;;;;;;;;4994191;28;44932;-77
2022/08/05 05:16:53;;;;;;;;;;;;;;;;;;4991094;28;49142;-77
2022/08/05 05:19:19;;;;;;;;;;;;;;;;;;4990877;28;43274;-78
2022/08/05 05:21:48;;;;;;;;;;;;;;;;;;4989743;28;46389;-77
2022/08/05 05:24:15;;;;;;;;;;;;;;;;;;4992450;28;47007;-77
2022/08/05 05:26:42;;;;;;;;;;;;;;;;;;5009646;28;44802;-77
2022/08/05 05:29:11;;;;;;;;;;;;;;;;;;5009865;28;47848;-77
2022/08/05 05:31:39;;;;;;;;;;;;;;;;;;5011264;28;48438;-77
2022/08/05 05:34:05;;;;;;;;;;;;;;;;;;4998626;28;19930;-77
2022/08/05 05:36:31;;;;;;;;;;;;;;;;;;5007314;28;47970;-77
2022/08/05 05:38:57;;;;;;;;;;;;;;;;;;4991250;28;44942;-78
2022/08/05 05:41:23;;;;;;;;;;;;;;;;;;5009287;28;44420;-78
2022/08/05 05:43:50;;;;;;;;;;;;;;;;;;4990737;28;47002;-78
2022/08/05 05:46:22;;;;;;;;;;;;;;;;;;4993799;28;44976;-78
2022/08/05 05:48:49;;;;;;;;;;;;;;;;;;5010225;28;46514;-78
2022/08/05 05:51:15;;;;;;;;;;;;;;;;;;4991854;28;48308;-78
2022/08/05 05:53:41;;;;;;;;;;;;;;;;;;5011191;28;45796;-78
2022/08/05 05:56:19;;;;;;;;;;;;;;;;;;4994657;28;48154;-78
2022/08/05 05:58:51;;;;;;;;;;;;;;;;;;5010860;28;45546;-78
2022/08/05 06:01:17;;;;;;;;;;;;;;;;;;5008518;28;46849;-78
2022/08/05 06:03:43;;;;;;;;;;;;;;;;;;5010485;28;46985;-78
2022/08/05 06:06:26;;;;;;;;;;;;;;;;;;4992362;28;42638;-78
2022/08/05 06:08:56;;;;;;;;;;;;;;;;;;4992900;28;46102;-78
2022/08/05 06:11:22;;;;;;;;;;;;;;;;;;5008883;28;46733;-78
2022/08/05 06:13:48;;;;;;;;;;;;;;;;;;4992928;28;45647;-78
2022/08/05 06:16:15;;;;;;;;;;;;;;;;;;5009244;28;46881;-78
2022/08/05 06:18:56;;;;;;;;;;;;;;;;;;5012400;28;42908;-78
2022/08/05 06:21:22;;;;;;;;;;;;;;;;;;4992893;28;46129;-78
2022/08/05 06:23:48;;;;;;;;;;;;;;;;;;4991295;28;46987;-78
2022/08/05 06:26:17;;;;;;;;;;;;;;;;;;5002760;28;42571;-78
2022/08/05 06:28:46;;;;;;;;;;;;;;;;;;4993328;28;44504;-78
2022/08/05 06:31:19;;;;;;;;;;;;;;;;;;5013592;28;48539;-78
2022/08/05 06:33:47;;;;;;;;;;;;;;;;;;4988424;28;43033;-78
2022/08/05 06:36:31;;;;;;;;;;;;;;;;;;5009059;28;44340;-78
2022/08/05 06:39:17;;;;;;;;;;;;;;;;;;5008178;28;19929;-78
2022/08/05 06:41:44;;;;;;;;;;;;;;;;;;5031173;28;46630;-78
2022/08/05 06:44:10;;;;;;;;;;;;;;;;;;4981616;28;46227;-78
2022/08/05 06:46:36;;;;;;;;;;;;;;;;;;4995322;28;44733;-78
2022/08/05 06:49:02;;;;;;;;;;;;;;;;;;5008695;28;46465;-78
2022/08/05 06:51:30;;;;;;;;;;;;;;;;;;4993240;28;45537;-78
2022/08/05 06:53:57;;;;;;;;;;;;;;;;;;5009981;28;44659;-75
2022/08/05 06:56:23;;;;;;;;;;;;;;;;;;5005266;28;46841;-75
2022/08/05 06:58:51;;;;;;;;;;;;;;;;;;4986802;28;44708;-76
2022/08/05 07:01:18;;;;;;;;;;;;;;;;;;5003411;28;45692;-76
2022/08/05 07:03:46;;;;;;;;;;;;;;;;;;4990969;28;47833;-75
2022/08/05 07:06:12;;;;;;;;;;;;;;;;;;5004378;28;44183;-75
2022/08/05 07:08:40;;;;;;;;;;;;;;;;;;4990526;28;45511;-76
2022/08/05 07:11:07;;;;;;;;;;;;;;;;;;5004195;28;47447;-76
2022/08/05 07:19:28;;;;;;;;;;;;;;;;;;5004324;28;19941;-75
2022/08/05 07:22:14;;;;;;;;;;;;;;;;;;5006682;28;19930;-76
2022/08/05 07:24:41;;;;;;;;;;;;;;;;;;5007968;28;46983;-76
2022/08/05 07:27:09;;;;;;;;;;;;;;;;;;5003141;28;43933;-75
2022/08/05 07:29:35;;;;;;;;;;;;;;;;;;4993631;28;46013;-76
2022/08/05 07:32:21;;;;;;;;;;;;;;;;;;5018886;28;20411;-75
2022/08/05 07:34:52;;;;;;;;;;;;;;;;;;4988623;28;46784;-75
2022/08/05 07:37:23;;;;;;;;;;;;;;;;;;4998054;28;45567;-78
2022/08/05 07:39:49;;;;;;;;;;;;;;;;;;4996333;28;48263;-78
2022/08/05 07:42:35;;;;;;;;;;;;;;;;;;5013580;28;19985;-78
2022/08/05 07:45:02;;;;;;;;;;;;;;;;;;4995318;28;46486;-78
2022/08/05 07:47:28;;;;;;;;;;;;;;;;;;5003916;28;44258;-78
2022/08/05 07:50:04;;;;;;;;;;;;;;;;;;4992939;28;47786;-76
2022/08/05 07:52:31;;;;;;;;;;;;;;;;;;4991131;28;46907;-76
2022/08/05 07:54:58;;;;;;;;;;;;;;;;;;4988959;28;43624;-76
2022/08/05 07:57:24;;;;;;;;;;;;;;;;;;5005049;28;47401;-75
2022/08/05 08:00:13;;;;;;;;;;;;;;;;;;5008306;28;20401;-75
2022/08/05 08:02:39;;;;;;;;;;;;;;;;;;4990637;28;44071;-76
2022/08/05 08:05:26;;;;;;;;;;;;;;;;;;5007121;28;20429;-76
2022/08/05 08:07:54;;;;;;;;;;;;;;;;;;4990091;28;35694;-76
2022/08/05 08:10:25;;;;;;;;;;;;;;;;;;5007995;28;46485;-76
2022/08/05 08:12:51;;;;;;;;;;;;;;;;;;5004177;28;47537;-75
2022/08/05 08:15:18;;;;;;;;;;;;;;;;;;5006772;28;44715;-76
2022/08/05 08:18:02;;;;;;;;;;;;;;;;;;5007235;28;47088;-76
2022/08/05 08:20:33;;;;;;;;;;;;;;;;;;5005515;28;48488;-76
2022/08/05 08:23:10;;;;;;;;;;;;;;;;;;5004069;28;45877;-76
2022/08/05 08:25:56;;;;;;;;;;;;;;;;;;5007143;28;19929;-76
2022/08/05 08:28:26;;;;;;;;;;;;;;;;;;4987841;28;47262;-75
2022/08/05 08:31:02;;;;;;;;;;;;;;;;;;5004145;28;47858;-76
2022/08/05 08:33:29;;;;;;;;;;;;;;;;;;5006486;28;46979;-77
2022/08/05 08:35:55;;;;;;;;;;;;;;;;;;5008486;28;44731;-76
2022/08/05 08:38:41;;;;;;;;;;;;;;;;;;4991320;28;20419;-76
2022/08/05 08:41:08;;;;;;;;;;;;;;;;;;4987470;28;48095;-76
2022/08/05 08:43:34;;;;;;;;;;;;;;;;;;5002520;28;45038;-76
2022/08/05 08:46:20;;;;;;;;;;;;;;;;;;5005922;28;20433;-76
2022/08/05 08:48:47;;;;;;;;;;;;;;;;;;5023638;28;48032;-76
2022/08/05 08:51:33;;;;;;;;;;;;;;;;;;5000821;28;44518;-76
2022/08/05 08:54:19;;;;;;;;;;;;;;;;;;5004864;28;19940;-76
2022/08/05 08:56:46;;;;;;;;;;;;;;;;;;5006803;28;45649;-77
2022/08/05 08:59:14;;;;;;;;;;;;;;;;;;5006803;28;47858;-77
2022/08/05 09:01:44;;;;;;;;;;;;;;;;;;5003605;28;46361;-77
2022/08/05 09:04:11;;;;;;;;;;;;;;;;;;5026910;28;44602;-76
2022/08/05 09:06:37;;;;;;;;;;;;;;;;;;5010859;28;46444;-77
2022/08/05 09:09:03;;;;;;;;;;;;;;;;;;4990160;28;46797;-76
2022/08/05 09:11:29;;;;;;;;;;;;;;;;;;4988825;28;44744;-77
2022/08/05 09:14:16;;;;;;;;;;;;;;;;;;4992214;28;19934;-77
2022/08/05 09:17:02;;;;;;;;;;;;;;;;;;5007057;28;20398;-76
2022/08/05 09:19:28;;;;;;;;;;;;;;;;;;4988743;28;47459;-76
2022/08/05 09:22:01;;;;;;;;;;;;;;;;;;4990632;28;48468;-76
2022/08/05 09:24:48;;;;;;;;;;;;;;;;;;4980816;28;19936;-80
2022/08/05 09:27:14;;;;;;;;;;;;;;;;;;4987591;28;45118;-76
2022/08/05 09:29:48;;;;;;;;;;;;;;;;;;4999389;28;47316;-76
2022/08/05 09:32:14;;;;;;;;;;;;;;;;;;5007106;28;43616;-76
2022/08/05 09:35:01;;;;;;;;;;;;;;;;;;4976668;28;19926;-76
2022/08/05 09:37:28;;;;;;;;;;;;;;;;;;4985654;28;47127;-76
2022/08/05 09:40:14;;;;;;;;;;;;;;;;;;5002185;28;19930;-76
2022/08/05 09:42:41;;;;;;;;;;;;;;;;;;4990140;28;48268;-76
2022/08/05 09:45:07;;;;;;;;;;;;;;;;;;5005385;28;45849;-76
2022/08/05 09:47:53;;;;;;;;;;;;;;;;;;4986228;28;20411;-76
2022/08/05 09:50:21;;;;;;;;;;;;;;;;;;5002480;28;45172;-76
2022/08/05 09:53:01;;;;;;;;;;;;;;;;;;4992888;28;45005;-78
2022/08/05 09:55:27;;;;;;;;;;;;;;;;;;5004970;28;44385;-79
2022/08/05 09:58:13;;;;;;;;;;;;;;;;;;5012005;28;19933;-78
2022/08/05 10:00:40;;;;;;;;;;;;;;;;;;5013735;28;44736;-78
2022/08/05 10:03:06;;;;;;;;;;;;;;;;;;4992811;28;47161;-77
2022/08/05 10:05:32;;;;;;;;;;;;;;;;;;4991428;28;45083;-77
2022/08/05 10:07:58;;;;;;;;;;;;;;;;;;5005236;28;44473;-76
2022/08/05 10:10:45;;;;;;;;;;;;;;;;;;4994585;28;19933;-78
2022/08/05 10:13:11;;;;;;;;;;;;;;;;;;5008468;28;44583;-75
2022/08/05 10:15:37;;;;;;;;;;;;;;;;;;4988995;28;45258;-77
2022/08/05 10:18:04;;;;;;;;;;;;;;;;;;5010130;28;48183;-79
2022/08/05 10:20:30;;;;;;;;;;;;;;;;;;4989421;28;46003;-77
2022/08/05 10:22:56;;;;;;;;;;;;;;;;;;4987493;28;47934;-77
2022/08/05 10:25:23;;;;;;;;;;;;;;;;;;5002661;28;44764;-76
2022/08/05 10:27:51;;;;;;;;;;;;;;;;;;5005256;28;46006;-77
2022/08/05 10:30:38;;;;;;;;;;;;;;;;;;4994161;28;19940;-78
2022/08/05 10:33:24;;;;;;;;;;;;;;;;;;5007328;28;19929;-76
2022/08/05 10:35:50;;;;;;;;;;;;;;;;;;4990022;28;46477;-78
2022/08/05 10:38:17;;;;;;;;;;;;;;;;;;5002960;28;46141;-78
2022/08/05 10:40:44;;;;;;;;;;;;;;;;;;4988598;28;44501;-77
2022/08/05 10:43:10;;;;;;;;;;;;;;;;;;5006226;28;46766;-76
2022/08/05 10:45:37;;;;;;;;;;;;;;;;;;5006085;28;43474;-77
2022/08/05 10:48:05;;;;;;;;;;;;;;;;;;4987721;28;46453;-77
2022/08/05 10:50:51;;;;;;;;;;;;;;;;;;4989564;28;19934;-77
2022/08/05 10:53:18;;;;;;;;;;;;;;;;;;5007852;28;44766;-77
2022/08/05 10:55:44;;;;;;;;;;;;;;;;;;4992894;28;46491;-77
2022/08/05 10:58:30;;;;;;;;;;;;;;;;;;4995889;28;46010;-78
2022/08/05 11:01:13;;;;;;;;;;;;;;;;;;5009667;28;44886;-77
2022/08/05 11:03:40;;;;;;;;;;;;;;;;;;5006887;28;47829;-78
2022/08/05 11:06:06;;;;;;;;;;;;;;;;;;5006251;28;48389;-76
2022/08/05 11:08:33;;;;;;;;;;;;;;;;;;4988013;28;46769;-75
2022/08/05 11:11:03;;;;;;;;;;;;;;;;;;4992425;28;47391;-76
2022/08/05 11:13:34;;;;;;;;;;;;;;;;;;5002652;28;44716;-76
2022/08/05 11:16:01;;;;;;;;;;;;;;;;;;5000752;28;46281;-77
2022/08/05 11:18:27;;;;;;;;;;;;;;;;;;4989378;28;47235;-76
2022/08/05 11:20:55;;;;;;;;;;;;;;;;;;4987128;28;45701;-77
2022/08/05 11:23:21;;;;;;;;;;;;;;;;;;5005859;28;46453;-76
2022/08/05 11:25:47;;;;;;;;;;;;;;;;;;5012902;28;46018;-76
2022/08/05 11:28:31;;;;;;;;;;;;;;;;;;4993812;28;43853;-77
2022/08/05 11:31:00;;;;;;;;;;;;;;;;;;5004355;28;46680;-76
2022/08/05 11:33:26;;;;;;;;;;;;;;;;;;5007910;28;44524;-76
2022/08/05 11:36:08;;;;;;;;;;;;;;;;;;4993740;28;47524;-77
2022/08/05 11:38:35;;;;;;;;;;;;;;;;;;5005280;28;48096;-77
2022/08/05 11:41:02;;;;;;;;;;;;;;;;;;5006590;28;45837;-76
2022/08/05 11:43:48;;;;;;;;;;;;;;;;;;4992560;28;20348;-77
2022/08/05 11:46:32;;;;;;;;;;;;;;;;;;4999511;28;46122;-75
2022/08/05 11:48:58;;;;;;;;;;;;;;;;;;4988118;28;44219;-76
2022/08/05 11:51:25;;;;;;;;;;;;;;;;;;4990443;28;45792;-76
2022/08/05 11:54:10;;;;;;;;;;;;;;;;;;4993521;28;43898;-76
2022/08/05 11:56:36;;;;;;;;;;;;;;;;;;4996161;28;46489;-75
2022/08/05 11:59:06;;;;;;;;;;;;;;;;;;5004518;28;48990;-79
2022/08/05 12:01:39;;;;;;;;;;;;;;;;;;5003940;28;45481;-76
2022/08/05 12:04:05;;;;;;;;;;;;;;;;;;5000881;28;47488;-76
2022/08/05 12:06:31;;;;;;;;;;;;;;;;;;5000922;28;48042;-77
2022/08/05 12:08:57;;;;;;;;;;;;;;;;;;4991387;28;44713;-76
2022/08/05 12:11:24;;;;;;;;;;;;;;;;;;5002290;28;47663;-76
2022/08/05 12:13:53;;;;;;;;;;;;;;;;;;5007881;28;45644;-76
2022/08/05 12:16:20;;;;;;;;;;;;;;;;;;5005636;28;46538;-77
2022/08/05 12:18:50;;;;;;;;;;;;;;;;;;5005260;28;48259;-77
2022/08/05 12:21:18;;;;;;;;;;;;;;;;;;4990273;28;45990;-77
2022/08/05 12:23:44;;;;;;;;;;;;;;;;;;5006492;28;47764;-77
2022/08/05 12:26:11;;;;;;;;;;;;;;;;;;4988698;28;47026;-77
2022/08/05 12:28:37;;;;;;;;;;;;;;;;;;4988147;28;44572;-76
2022/08/05 12:31:03;;;;;;;;;;;;;;;;;;4989716;28;45662;-76
2022/08/05 12:33:30;;;;;;;;;;;;;;;;;;5007447;28;46926;-77
2022/08/05 12:36:01;;;;;;;;;;;;;;;;;;5007322;28;46690;-77
2022/08/05 12:38:28;;;;;;;;;;;;;;;;;;4991631;28;48233;-76
2022/08/05 12:40:55;;;;;;;;;;;;;;;;;;5006037;28;44986;-76
2022/08/05 12:43:21;;;;;;;;;;;;;;;;;;5005354;28;45206;-76
2022/08/05 12:45:48;;;;;;;;;;;;;;;;;;4983407;28;47106;-76
2022/08/05 12:48:15;;;;;;;;;;;;;;;;;;4988041;28;45901;-77
2022/08/05 12:50:42;;;;;;;;;;;;;;;;;;4980321;28;46107;-77
2022/08/05 12:53:09;;;;;;;;;;;;;;;;;;4988501;28;48094;-76
2022/08/05 12:55:35;;;;;;;;;;;;;;;;;;4985641;28;45507;-76
2022/08/05 12:58:01;;;;;;;;;;;;;;;;;;5003968;28;47345;-77
2022/08/05 13:00:50;;;;;;;;;;;;;;;;;;5007066;28;20061;-76
2022/08/05 13:03:36;;;;;;;;;;;;;;;;;;5000338;28;19933;-76
2022/08/05 13:06:07;;;;;;;;;;;;;;;;;;5003951;28;48533;-76
2022/08/05 13:08:33;;;;;;;;;;;;;;;;;;4989377;28;44613;-77
2022/08/05 13:10:59;;;;;;;;;;;;;;;;;;5004560;28;46135;-76
2022/08/05 13:13:26;;;;;;;;;;;;;;;;;;4992873;28;48116;-76
2022/08/05 13:16:12;;;;;;;;;;;;;;;;;;4999372;28;20422;-77
2022/08/05 13:18:40;;;;;;;;;;;;;;;;;;4999004;28;46065;-76
2022/08/05 13:21:09;;;;;;;;;;;;;;;;;;5006458;28;42795;-76
2022/08/05 13:23:35;;;;;;;;;;;;;;;;;;4992294;28;47605;-76
2022/08/05 13:26:04;;;;;;;;;;;;;;;;;;4992373;28;46763;-76
2022/08/05 13:28:30;;;;;;;;;;;;;;;;;;5004414;28;44594;-77
2022/08/05 13:30:57;;;;;;;;;;;;;;;;;;4984313;28;46449;-76
2022/08/05 13:33:23;;;;;;;;;;;;;;;;;;5005907;28;47065;-76
2022/08/05 13:36:09;;;;;;;;;;;;;;;;;;4986100;28;19936;-76
2022/08/05 13:38:39;;;;;;;;;;;;;;;;;;4983737;28;47500;-76
2022/08/05 13:41:07;;;;;;;;;;;;;;;;;;4990766;28;47861;-76
2022/08/05 13:43:34;;;;;;;;;;;;;;;;;;5007668;28;47277;-76
2022/08/05 13:46:11;;;;;;;;;;;;;;;;;;5002548;28;48361;-77
2022/08/05 13:48:37;;;;;;;;;;;;;;;;;;4994545;28;42838;-78
2022/08/05 13:51:23;;;;;;;;;;;;;;;;;;4996259;28;20327;-79
2022/08/05 13:53:49;;;;;;;;;;;;;;;;;;5007628;28;45509;-78
2022/08/05 13:56:16;;;;;;;;;;;;;;;;;;5005257;28;43498;-79
2022/08/05 13:58:43;;;;;;;;;;;;;;;;;;4993788;28;48018;-78
2022/08/05 14:01:09;;;;;;;;;;;;;;;;;;5008407;28;46994;-77
2022/08/05 14:03:35;;;;;;;;;;;;;;;;;;5010904;28;44456;-78
2022/08/05 14:06:02;;;;;;;;;;;;;;;;;;5003897;28;48119;-79
2022/08/05 14:08:48;;;;;;;;;;;;;;;;;;4997199;28;19961;-78
2022/08/05 14:11:14;;;;;;;;;;;;;;;;;;4989628;28;45845;-77
2022/08/05 14:13:45;;;;;;;;;;;;;;;;;;4994089;28;46776;-78
2022/08/05 14:16:13;;;;;;;;;;;;;;;;;;5005810;28;44297;-84
2022/08/05 14:18:42;;;;;;;;;;;;;;;;;;4997502;28;45253;-79
2022/08/05 14:21:08;;;;;;;;;;;;;;;;;;5004266;28;47754;-79
2022/08/05 14:23:54;;;;;;;;;;;;;;;;;;4995350;28;19934;-78
2022/08/05 14:26:21;;;;;;;;;;;;;;;;;;5012031;28;44980;-79
2022/08/05 14:29:04;;;;;;;;;;;;;;;;;;4998796;28;45907;-79
2022/08/05 14:31:30;;;;;;;;;;;;;;;;;;5008731;28;43954;-79
2022/08/05 14:34:16;;;;;;;;;;;;;;;;;;5017700;28;19940;-79
2022/08/05 14:36:42;;;;;;;;;;;;;;;;;;4997873;28;42963;-78
2022/08/05 14:39:09;;;;;;;;;;;;;;;;;;4998744;28;45183;-79
2022/08/05 14:41:36;;;;;;;;;;;;;;;;;;4999319;28;48293;-79
2022/08/05 14:44:02;;;;;;;;;;;;;;;;;;5020054;28;46004;-79
2022/08/05 14:46:35;;;;;;;;;;;;;;;;;;5013672;28;47985;-78
2022/08/05 14:49:01;;;;;;;;;;;;;;;;;;5015478;28;44229;-79
2022/08/05 14:51:32;;;;;;;;;;;;;;;;;;5016362;28;45207;-78
2022/08/05 14:54:00;;;;;;;;;;;;;;;;;;4996871;28;46574;-79
2022/08/05 14:56:47;;;;;;;;;;;;;;;;;;4996962;28;19929;-78
2022/08/05 14:59:13;;;;;;;;;;;;;;;;;;5012336;28;47575;-78
2022/08/05 15:01:40;;;;;;;;;;;;;;;;;;5026910;28;45877;-79
2022/08/05 15:04:13;;;;;;;;;;;;;;;;;;5003125;28;46101;-79
2022/08/05 15:06:39;;;;;;;;;;;;;;;;;;5012825;28;45786;-79
2022/08/05 15:09:06;;;;;;;;;;;;;;;;;;4997313;28;46769;-78
2022/08/05 15:11:32;;;;;;;;;;;;;;;;;;5006988;28;46514;-79
2022/08/05 15:14:17;;;;;;;;;;;;;;;;;;4995763;28;47990;-78
2022/08/05 15:16:59;;;;;;;;;;;;;;;;;;5012507;28;45768;-78
2022/08/05 15:19:25;;;;;;;;;;;;;;;;;;5000890;28;44737;-79
2022/08/05 15:21:52;;;;;;;;;;;;;;;;;;5017547;28;45697;-78
2022/08/05 15:24:18;;;;;;;;;;;;;;;;;;5000383;28;42727;-79
2022/08/05 15:26:44;;;;;;;;;;;;;;;;;;4989429;28;47518;-78
2022/08/05 15:29:10;;;;;;;;;;;;;;;;;;5006771;28;46822;-79
2022/08/05 15:31:38;;;;;;;;;;;;;;;;;;4999130;28;44022;-79
2022/08/05 15:34:04;;;;;;;;;;;;;;;;;;5002230;28;46986;-79
2022/08/05 15:36:52;;;;;;;;;;;;;;;;;;5003456;28;19926;-79
2022/08/05 15:39:18;;;;;;;;;;;;;;;;;;4987222;28;45864;-78
2022/08/05 15:42:05;;;;;;;;;;;;;;;;;;4999806;28;19929;-78
2022/08/05 15:44:53;;;;;;;;;;;;;;;;;;5018144;28;20755;-78
2022/08/05 15:47:20;;;;;;;;;;;;;;;;;;5002053;28;46368;-78
2022/08/05 15:49:46;;;;;;;;;;;;;;;;;;5019568;28;47136;-79
2022/08/05 15:52:25;;;;;;;;;;;;;;;;;;5003333;28;44577;-79
2022/08/05 15:55:12;;;;;;;;;;;;;;;;;;5020091;28;20865;-78
2022/08/05 15:57:40;;;;;;;;;;;;;;;;;;5018050;28;45719;-79
2022/08/05 16:00:07;;;;;;;;;;;;;;;;;;4999416;28;46657;-79
2022/08/05 16:02:33;;;;;;;;;;;;;;;;;;5013436;28;48327;-79
2022/08/05 16:05:00;;;;;;;;;;;;;;;;;;4998264;28;45362;-78
2022/08/05 16:07:26;;;;;;;;;;;;;;;;;;4993069;28;47564;-78
2022/08/05 16:09:54;;;;;;;;;;;;;;;;;;5005193;28;45202;-78
2022/08/05 16:12:21;;;;;;;;;;;;;;;;;;5005710;28;45795;-78
2022/08/05 16:14:47;;;;;;;;;;;;;;;;;;4990495;28;47848;-78
2022/08/05 16:17:13;;;;;;;;;;;;;;;;;;4977762;28;48113;-78
2022/08/05 16:19:40;;;;;;;;;;;;;;;;;;5012792;28;45263;-78
2022/08/05 16:22:26;;;;;;;;;;;;;;;;;;5004987;28;19941;-78
2022/08/05 16:24:59;;;;;;;;;;;;;;;;;;5010622;28;45016;-78
2022/08/05 16:27:26;;;;;;;;;;;;;;;;;;5024540;28;45900;-78
2022/08/05 16:29:57;;;;;;;;;;;;;;;;;;5010276;28;45947;-78
2022/08/05 16:32:23;;;;;;;;;;;;;;;;;;4995484;28;43049;-77
2022/08/05 16:34:57;;;;;;;;;;;;;;;;;;4987775;28;45093;-77
2022/08/05 16:37:24;;;;;;;;;;;;;;;;;;4988783;28;43970;-77
2022/08/05 16:40:10;;;;;;;;;;;;;;;;;;4989547;28;19980;-75
2022/08/05 16:42:50;;;;;;;;;;;;;;;;;;5003044;28;46995;-76
2022/08/05 16:45:16;;;;;;;;;;;;;;;;;;4988114;28;45795;-78
2022/08/05 16:48:02;;;;;;;;;;;;;;;;;;4992919;28;19937;-79
2022/08/05 16:50:29;;;;;;;;;;;;;;;;;;4989255;28;47432;-78
2022/08/05 16:52:55;;;;;;;;;;;;;;;;;;5004235;28;44731;-78
2022/08/05 16:55:22;;;;;;;;;;;;;;;;;;4990186;28;46159;-77
2022/08/05 16:57:48;;;;;;;;;;;;;;;;;;4987045;28;48012;-79
2022/08/05 17:00:25;;;;;;;;;;;;;;;;;;5005427;28;44261;-78
2022/08/05 17:02:59;;;;;;;;;;;;;;;;;;5004845;28;46639;-77
2022/08/05 17:05:25;;;;;;;;;;;;;;;;;;5006806;28;44339;-79
2022/08/05 17:07:51;;;;;;;;;;;;;;;;;;5003663;28;45340;-78
2022/08/05 17:10:20;;;;;;;;;;;;;;;;;;4981360;28;48101;-78
2022/08/05 17:12:47;;;;;;;;;;;;;;;;;;5002186;28;46112;-77
2022/08/05 17:15:17;;;;;;;;;;;;;;;;;;5007365;28;46563;-77